Time;durP1;ratioP1;P1;durP2;ratioP2;P2;SDS_P1;SDS_P2;PMS_P1;PMS_P2;Temp;Humidity;BMP_temperature;BMP_pressure;BME280_temperature;BME280_humidity;BME280_pressure;Samples;Min_cycle;Max_cycle;Signal;HPM_P1;HPM_P2
2023/06/09 00:00:41;;;;;;;14.48;3.88;;;13.60;99.90;;;;;;6189382;23;20338;-65
2023/06/09 00:03:07;;;;;;;14.30;3.88;;;13.60;99.90;;;;;;6188356;23;20025;-65
2023/06/09 00:05:34;;;;;;;11.15;4.25;;;13.50;99.90;;;;;;6187009;23;20060;-72
2023/06/09 00:08:00;;;;;;;11.57;3.83;;;13.60;99.90;;;;;;6189737;23;20087;-74
2023/06/09 00:10:26;;;;;;;16.20;4.55;;;13.60;99.90;;;;;;6192262;23;20024;-75
2023/06/09 00:12:54;;;;;;;11.90;4.88;;;13.60;99.90;;;;;;6201372;23;20032;-73
2023/06/09 00:15:21;;;;;;;10.45;4.00;;;13.60;99.90;;;;;;6161397;23;20032;-73
2023/06/09 00:17:47;;;;;;;9.07;3.65;;;13.60;99.90;;;;;;6189341;23;20088;-73
2023/06/09 00:20:14;;;;;;;9.77;5.50;;;13.60;99.90;;;;;;6188414;23;20056;-73
2023/06/09 00:22:43;;;;;;;12.38;4.32;;;13.60;99.90;;;;;;6161656;23;20033;-74
2023/06/09 00:25:13;;;;;;;15.70;4.30;;;13.60;99.90;;;;;;6188684;23;20012;-73
2023/06/09 00:27:44;;;;;;;17.75;4.28;;;13.60;99.90;;;;;;6186606;23;20020;-74
2023/06/09 00:30:11;;;;;;;16.10;4.88;;;13.50;99.90;;;;;;6189068;23;20017;-74
2023/06/09 00:32:37;;;;;;;10.50;3.90;;;13.50;99.90;;;;;;6186949;23;20031;-73
2023/06/09 00:35:03;;;;;;;10.93;4.68;;;13.50;99.90;;;;;;6188223;23;20017;-74
2023/06/09 00:37:30;;;;;;;12.10;4.15;;;13.50;99.90;;;;;;6188392;23;20044;-74
2023/06/09 00:39:57;;;;;;;15.52;5.53;;;13.40;99.90;;;;;;6161542;23;20021;-74
2023/06/09 00:42:23;;;;;;;7.82;3.75;;;13.40;99.90;;;;;;6188621;23;20025;-74
2023/06/09 00:44:49;;;;;;;6.97;4.07;;;13.40;99.90;;;;;;6186971;23;20027;-75
2023/06/09 00:47:16;;;;;;;13.13;4.88;;;13.40;99.90;;;;;;6188716;23;20049;-74
2023/06/09 00:49:43;;;;;;;10.90;3.97;;;13.50;99.90;;;;;;6186979;23;20029;-74
2023/06/09 00:52:09;;;;;;;11.48;3.85;;;13.50;99.90;;;;;;6188615;23;20071;-74
2023/06/09 00:54:36;;;;;;;13.82;4.25;;;13.40;99.90;;;;;;6188064;23;20343;-74
2023/06/09 00:57:03;;;;;;;9.30;4.60;;;13.40;99.90;;;;;;6187258;23;20386;-74
2023/06/09 00:59:30;;;;;;;10.32;4.03;;;13.40;99.90;;;;;;6188725;23;20457;-75
2023/06/09 01:01:56;;;;;;;10.88;4.53;;;13.30;99.90;;;;;;6186538;23;20028;-74
2023/06/09 01:04:21;;;;;;;9.93;3.95;;;13.30;99.90;;;;;;6188109;23;20108;-74
2023/06/09 01:07:00;;;;;;;11.75;4.20;;;13.30;99.90;;;;;;6186693;23;20025;-74
2023/06/09 01:09:38;;;;;;;12.95;4.30;;;13.40;99.90;;;;;;6188341;23;20028;-74
2023/06/09 01:12:28;;;;;;;15.25;5.28;;;13.40;99.90;;;;;;6188246;23;20021;-74
2023/06/09 01:15:00;;;;;;;14.95;4.55;;;13.30;99.90;;;;;;6186330;23;20067;-74
2023/06/09 01:17:29;;;;;;;15.80;5.68;;;13.20;99.90;;;;;;6188587;23;20024;-74
2023/06/09 01:20:05;;;;;;;17.02;4.65;;;13.20;99.90;;;;;;6187205;23;20331;-74
2023/06/09 01:22:57;;;;;;;11.02;4.82;;;13.20;99.90;;;;;;6187618;23;20051;-74
2023/06/09 01:25:34;;;;;;;8.63;4.80;;;13.10;99.90;;;;;;6188045;23;20515;-73
2023/06/09 01:28:07;;;;;;;13.02;5.10;;;13.10;99.90;;;;;;6186614;23;20021;-74
2023/06/09 01:30:34;;;;;;;10.35;4.30;;;13.10;99.90;;;;;;6188549;23;20032;-74
2023/06/09 01:33:03;;;;;;;15.55;5.15;;;13.10;99.90;;;;;;6160850;23;20564;-74
2023/06/09 01:35:29;;;;;;;13.05;4.47;;;13.10;99.90;;;;;;6187512;23;20021;-74
2023/06/09 01:37:56;;;;;;;13.73;4.43;;;13.10;99.90;;;;;;6188551;23;20017;-74
2023/06/09 01:40:22;;;;;;;15.32;4.57;;;13.00;99.90;;;;;;6186007;23;20021;-74
2023/06/09 01:42:48;;;;;;;14.85;4.78;;;13.10;99.90;;;;;;6188480;23;20457;-75
2023/06/09 01:45:14;;;;;;;14.80;4.75;;;13.10;99.90;;;;;;6186522;23;20085;-73
2023/06/09 01:47:40;;;;;;;15.13;4.47;;;13.00;99.90;;;;;;6188124;23;20028;-74
2023/06/09 01:50:18;;;;;;;14.25;5.22;;;13.00;99.90;;;;;;6187724;23;20025;-74
2023/06/09 01:53:00;;;;;;;12.13;4.90;;;13.00;99.90;;;;;;6187495;23;20021;-75
2023/06/09 01:55:47;;;;;;;11.38;4.63;;;13.00;99.90;;;;;;6188514;23;20028;-75
2023/06/09 01:58:25;;;;;;;9.20;4.63;;;12.90;99.90;;;;;;6186669;23;20020;-74
2023/06/09 02:00:52;;;;;;;12.27;4.72;;;12.90;99.90;;;;;;6161973;23;20032;-74
2023/06/09 02:03:22;;;;;;;17.13;4.72;;;12.90;99.90;;;;;;6187933;23;20434;-75
2023/06/09 02:05:51;;;;;;;15.73;5.18;;;12.90;99.90;;;;;;6186292;23;20065;-74
2023/06/09 02:08:17;;;;;;;13.38;4.90;;;12.90;99.90;;;;;;6162319;23;20028;-74
2023/06/09 02:10:43;;;;;;;14.55;5.30;;;12.80;99.90;;;;;;6186001;23;20027;-74
2023/06/09 02:13:16;;;;;;;15.70;6.57;;;12.80;99.90;;;;;;6188316;23;20021;-74
2023/06/09 02:15:44;;;;;;;19.92;5.93;;;12.80;99.90;;;;;;6187087;23;20029;-75
2023/06/09 02:18:11;;;;;;;13.82;6.32;;;12.80;99.90;;;;;;6187869;23;20065;-74
2023/06/09 02:20:39;;;;;;;12.00;6.00;;;12.80;99.90;;;;;;6188479;23;20048;-74
2023/06/09 02:23:05;;;;;;;11.90;4.82;;;12.80;99.90;;;;;;6159210;23;20017;-74
2023/06/09 02:25:32;;;;;;;15.20;4.85;;;12.80;99.90;;;;;;6161656;23;20097;-73
2023/06/09 02:28:08;;;;;;;12.43;5.18;;;12.80;99.90;;;;;;6186352;23;20032;-77
2023/06/09 02:30:34;;;;;;;12.07;6.13;;;12.80;99.90;;;;;;6188138;23;20013;-74
2023/06/09 02:33:01;;;;;;;14.27;5.30;;;12.80;99.90;;;;;;6187439;23;20017;-74
2023/06/09 02:35:29;;;;;;;13.20;5.10;;;12.80;99.90;;;;;;6187427;23;20021;-75
2023/06/09 02:37:55;;;;;;;10.13;5.10;;;12.70;99.90;;;;;;6189017;23;20017;-75
2023/06/09 02:40:21;;;;;;;13.25;5.78;;;12.70;99.90;;;;;;6188403;23;20021;-74
2023/06/09 02:42:47;;;;;;;14.18;6.07;;;12.70;99.90;;;;;;6190172;23;20665;-74
2023/06/09 02:45:13;;;;;;;16.27;6.53;;;12.70;99.90;;;;;;6188464;23;20027;-74
2023/06/09 02:47:39;;;;;;;16.88;6.13;;;12.70;99.90;;;;;;6189971;23;20021;-74
2023/06/09 02:50:06;;;;;;;17.58;5.97;;;12.70;99.90;;;;;;6189327;23;20021;-73
2023/06/09 02:52:32;;;;;;;15.90;6.25;;;12.70;99.90;;;;;;6189353;23;20044;-74
2023/06/09 02:54:58;;;;;;;14.50;5.57;;;12.70;99.90;;;;;;6190735;23;20017;-74
2023/06/09 02:57:28;;;;;;;17.90;6.45;;;12.70;99.90;;;;;;6190207;23;20021;-74
2023/06/09 02:59:54;;;;;;;18.42;5.95;;;12.70;99.90;;;;;;6192112;23;20076;-73
2023/06/09 03:02:20;;;;;;;15.80;6.65;;;12.70;99.90;;;;;;6189759;23;20021;-74
2023/06/09 03:04:46;;;;;;;12.75;5.60;;;12.70;99.90;;;;;;6202351;23;20017;-75
2023/06/09 03:07:16;;;;;;;22.33;6.15;;;12.60;99.90;;;;;;6193769;23;20056;-75
2023/06/09 03:09:42;;;;;;;17.20;6.68;;;12.60;99.90;;;;;;6190477;23;20025;-74
2023/06/09 03:12:09;;;;;;;14.52;5.88;;;12.60;99.90;;;;;;6190800;23;20017;-74
2023/06/09 03:14:35;;;;;;;9.93;5.35;;;12.60;99.90;;;;;;6188620;23;20412;-75
2023/06/09 03:17:04;;;;;;;16.60;5.68;;;12.60;99.90;;;;;;6190576;23;20029;-74
2023/06/09 03:19:30;;;;;;;13.60;5.97;;;12.60;99.90;;;;;;6187438;23;20013;-75
2023/06/09 03:21:57;;;;;;;13.02;6.05;;;12.60;99.90;;;;;;6189215;23;20060;-75
2023/06/09 03:24:24;;;;;;;16.05;7.10;;;12.60;99.90;;;;;;6188017;23;20032;-74
2023/06/09 03:26:52;;;;;;;13.02;5.18;;;12.60;99.90;;;;;;6188594;23;20021;-75
2023/06/09 03:29:19;;;;;;;15.70;6.15;;;12.60;99.90;;;;;;6162750;23;20027;-74
2023/06/09 03:31:45;;;;;;;19.25;7.22;;;12.60;99.90;;;;;;6161118;23;20132;-74
2023/06/09 03:34:11;;;;;;;16.63;6.10;;;12.60;99.90;;;;;;6189718;23;20021;-75
2023/06/09 03:36:36;;;;;;;17.45;5.88;;;12.60;99.90;;;;;;6187610;23;20028;-75
2023/06/09 03:39:03;;;;;;;23.45;6.30;;;12.60;99.90;;;;;;6189457;23;20028;-75
2023/06/09 03:41:29;;;;;;;16.40;6.28;;;12.60;99.90;;;;;;6188099;23;20051;-75
2023/06/09 03:43:55;;;;;;;19.92;6.40;;;12.60;99.90;;;;;;6188926;23;20025;-75
2023/06/09 03:46:21;;;;;;;13.07;6.53;;;12.60;99.90;;;;;;6162609;23;20425;-74
2023/06/09 03:48:47;;;;;;;11.82;7.10;;;12.60;99.90;;;;;;6186775;23;20032;-74
2023/06/09 03:51:13;;;;;;;18.75;6.18;;;12.60;99.90;;;;;;6189323;23;20021;-74
2023/06/09 03:53:39;;;;;;;20.42;6.32;;;12.60;99.90;;;;;;6187271;23;20399;-75
2023/06/09 03:56:07;;;;;;;16.20;5.68;;;12.70;99.90;;;;;;6189388;23;20413;-74
2023/06/09 03:58:33;;;;;;;16.58;6.15;;;12.70;99.90;;;;;;6187860;23;20021;-74
2023/06/09 04:00:59;;;;;;;15.48;6.75;;;12.70;99.90;;;;;;6188707;23;20109;-74
2023/06/09 04:03:25;;;;;;;17.17;6.72;;;12.70;99.90;;;;;;6188677;23;20021;-74
2023/06/09 04:05:50;;;;;;;15.85;6.78;;;12.70;99.90;;;;;;6186618;23;20020;-75
2023/06/09 04:08:16;;;;;;;14.30;5.85;;;12.80;99.90;;;;;;6189857;23;20069;-74
2023/06/09 04:10:42;;;;;;;16.25;6.88;;;12.80;99.90;;;;;;6187523;23;20021;-75
2023/06/09 04:13:09;;;;;;;19.25;6.07;;;12.80;99.90;;;;;;6189762;23;20024;-75
2023/06/09 04:15:38;;;;;;;16.58;6.88;;;12.80;99.90;;;;;;6188056;23;20017;-74
2023/06/09 04:18:04;;;;;;;14.90;5.85;;;12.70;99.90;;;;;;6188850;23;20017;-74
2023/06/09 04:20:30;;;;;;;19.92;7.03;;;12.70;99.90;;;;;;6188580;23;20028;-75
2023/06/09 04:22:56;;;;;;;20.52;6.53;;;12.70;99.90;;;;;;6187724;23;20017;-74
2023/06/09 04:25:34;;;;;;;14.65;6.28;;;12.70;99.90;;;;;;6188978;23;20025;-75
2023/06/09 04:28:03;;;;;;;14.45;5.95;;;12.80;99.90;;;;;;6186908;23;20017;-74
2023/06/09 04:30:30;;;;;;;12.70;5.85;;;12.90;99.90;;;;;;6188818;23;20021;-75
2023/06/09 04:33:03;;;;;;;15.25;6.40;;;12.90;99.90;;;;;;6187735;23;20092;-74
2023/06/09 04:35:30;;;;;;;15.23;6.20;;;13.00;99.90;;;;;;6187779;23;20021;-75
2023/06/09 04:37:57;;;;;;;13.73;6.13;;;13.10;99.90;;;;;;6189104;23;20031;-75
2023/06/09 04:40:22;;;;;;;18.58;7.18;;;13.20;99.90;;;;;;6186809;23;20056;-75
2023/06/09 04:42:51;;;;;;;17.65;6.03;;;13.20;99.90;;;;;;6162386;23;20031;-75
2023/06/09 04:45:20;;;;;;;17.23;6.35;;;13.30;99.90;;;;;;6186674;23;20017;-75
2023/06/09 04:47:49;;;;;;;21.02;6.63;;;13.40;99.90;;;;;;6188307;23;20017;-75
2023/06/09 04:50:15;;;;;;;17.83;6.70;;;13.50;99.90;;;;;;6187500;23;20079;-74
2023/06/09 04:52:43;;;;;;;18.27;6.82;;;13.50;99.90;;;;;;6187554;23;20032;-74
2023/06/09 04:55:13;;;;;;;15.82;6.28;;;13.60;99.90;;;;;;6188284;23;20028;-75
2023/06/09 04:57:40;;;;;;;19.23;6.85;;;13.80;99.90;;;;;;6186426;23;20021;-75
2023/06/09 05:00:09;;;;;;;13.88;6.07;;;13.90;99.90;;;;;;6188629;23;20024;-75
2023/06/09 05:02:35;;;;;;;13.07;5.90;;;14.10;99.90;;;;;;6186618;23;20052;-75
2023/06/09 05:05:01;;;;;;;19.50;6.22;;;14.10;99.90;;;;;;6188070;23;20021;-75
2023/06/09 05:07:27;;;;;;;14.23;5.80;;;14.20;99.90;;;;;;6187300;23;20021;-75
2023/06/09 05:09:52;;;;;;;11.85;6.03;;;14.30;99.90;;;;;;6187444;23;20888;-75
2023/06/09 05:12:20;;;;;;;18.48;6.60;;;14.30;99.90;;;;;;6188806;23;20030;-76
2023/06/09 05:14:46;;;;;;;17.92;6.90;;;14.30;99.90;;;;;;6160009;23;20021;-76
2023/06/09 05:17:11;;;;;;;13.13;6.32;;;14.50;99.90;;;;;;6162034;23;20052;-76
2023/06/09 05:19:37;;;;;;;23.08;7.55;;;14.60;99.90;;;;;;6186504;23;20466;-75
2023/06/09 05:22:03;;;;;;;20.05;6.40;;;14.70;99.90;;;;;;6188143;23;20017;-75
2023/06/09 05:24:29;;;;;;;18.23;6.80;;;14.60;99.90;;;;;;6186648;23;20021;-77
2023/06/09 05:26:54;;;;;;;15.63;6.72;;;14.80;99.90;;;;;;6187893;23;20131;-75
2023/06/09 05:29:21;;;;;;;19.38;7.38;;;14.80;99.90;;;;;;6188227;23;20099;-76
2023/06/09 05:31:46;;;;;;;16.33;6.30;;;14.80;99.90;;;;;;6186323;23;20017;-76
2023/06/09 05:34:12;;;;;;;20.08;8.27;;;14.90;99.90;;;;;;6188574;23;20028;-75
2023/06/09 05:36:38;;;;;;;18.42;6.47;;;15.00;99.90;;;;;;6186376;23;20040;-75
2023/06/09 05:39:04;;;;;;;19.70;6.78;;;15.10;99.90;;;;;;6188133;23;20025;-75
2023/06/09 05:41:30;;;;;;;14.32;5.43;;;15.20;99.90;;;;;;6160272;23;20068;-75
2023/06/09 05:43:57;;;;;;;13.05;6.32;;;15.20;99.90;;;;;;6188215;23;20095;-75
2023/06/09 05:46:25;;;;;;;15.25;6.22;;;15.40;99.90;;;;;;6187729;23;20021;-75
2023/06/09 05:48:51;;;;;;;17.98;7.13;;;15.50;99.90;;;;;;6186420;23;20488;-75
2023/06/09 05:51:17;;;;;;;14.18;7.30;;;15.50;99.90;;;;;;6188966;23;20024;-77
2023/06/09 05:53:43;;;;;;;12.93;6.57;;;15.60;99.90;;;;;;6186625;23;20024;-75
2023/06/09 05:56:09;;;;;;;17.52;6.47;;;15.60;99.90;;;;;;6137528;23;20052;-75
2023/06/09 05:58:38;;;;;;;14.70;7.22;;;15.70;99.90;;;;;;6187285;23;20020;-74
2023/06/09 06:01:04;;;;;;;13.05;7.00;;;15.70;99.90;;;;;;6188137;23;20049;-75
2023/06/09 06:03:31;;;;;;;16.75;6.93;;;15.90;99.90;;;;;;6197618;23;20021;-74
2023/06/09 06:05:57;;;;;;;12.30;6.30;;;15.90;99.90;;;;;;6169546;23;20047;-73
2023/06/09 06:08:23;;;;;;;15.18;7.38;;;15.90;99.90;;;;;;6189210;23;20096;-72
2023/06/09 06:10:50;;;;;;;14.27;5.97;;;16.00;99.90;;;;;;6187635;23;20021;-71
2023/06/09 06:13:16;;;;;;;14.63;7.22;;;16.10;99.90;;;;;;6191134;23;20024;-70
2023/06/09 06:15:42;;;;;;;16.75;6.60;;;16.10;99.90;;;;;;6189998;23;20029;-71
2023/06/09 06:18:07;;;;;;;17.13;7.13;;;16.10;99.90;;;;;;6191390;23;20024;-74
2023/06/09 06:20:33;;;;;;;15.95;6.35;;;16.20;99.90;;;;;;6191281;23;20025;-74
2023/06/09 06:22:59;;;;;;;16.17;7.20;;;16.30;99.90;;;;;;6190154;23;20024;-75
2023/06/09 06:25:25;;;;;;;15.88;6.30;;;16.30;99.90;;;;;;6191578;23;20204;-75
2023/06/09 06:27:51;;;;;;;15.70;6.03;;;16.40;99.90;;;;;;6189537;23;20111;-74
2023/06/09 06:30:17;;;;;;;15.27;6.88;;;16.50;99.90;;;;;;6191320;23;20020;-76
2023/06/09 06:32:50;;;;;;;13.50;6.63;;;16.50;99.90;;;;;;6189912;23;20020;-75
2023/06/09 06:35:24;;;;;;;14.98;5.97;;;16.60;99.90;;;;;;6191601;23;20107;-75
2023/06/09 06:37:50;;;;;;;13.20;6.43;;;16.70;99.90;;;;;;6191531;23;20021;-75
2023/06/09 06:40:16;;;;;;;11.88;5.85;;;16.80;99.90;;;;;;6189687;23;20556;-74
2023/06/09 06:42:42;;;;;;;13.23;6.28;;;17.00;99.90;;;;;;6163720;23;20092;-75
2023/06/09 06:45:08;;;;;;;21.77;7.72;;;17.00;99.90;;;;;;6188512;23;20017;-74
2023/06/09 06:47:34;;;;;;;13.25;5.45;;;17.10;99.90;;;;;;6190555;23;20540;-74
2023/06/09 06:50:00;;;;;;;11.32;6.38;;;17.20;99.90;;;;;;6162588;23;20025;-74
2023/06/09 06:52:26;;;;;;;17.00;6.57;;;17.20;99.90;;;;;;6190518;23;20064;-74
2023/06/09 06:54:51;;;;;;;14.68;5.75;;;17.30;99.90;;;;;;6190389;23;20028;-73
2023/06/09 06:57:17;;;;;;;14.70;5.75;;;17.40;99.90;;;;;;6189057;23;20017;-74
2023/06/09 06:59:43;;;;;;;14.80;6.07;;;17.50;99.90;;;;;;6191088;23;20039;-74
2023/06/09 07:02:10;;;;;;;19.50;5.85;;;17.50;99.90;;;;;;6162261;23;20027;-73
2023/06/09 07:04:36;;;;;;;12.65;5.95;;;17.60;99.90;;;;;;6191036;23;20025;-73
2023/06/09 07:07:02;;;;;;;17.42;6.45;;;17.80;99.90;;;;;;6189468;23;20020;-73
2023/06/09 07:09:28;;;;;;;11.57;5.88;;;18.00;99.90;;;;;;6190587;23;20071;-74
2023/06/09 07:11:54;;;;;;;16.33;6.93;;;18.10;99.90;;;;;;6190861;23;20016;-74
2023/06/09 07:14:20;;;;;;;15.43;6.40;;;18.10;99.90;;;;;;6190013;23;20056;-73
2023/06/09 07:16:45;;;;;;;14.13;5.60;;;18.10;99.90;;;;;;6191679;23;20020;-73
2023/06/09 07:19:11;;;;;;;13.45;5.05;;;18.30;99.90;;;;;;6189342;23;20035;-74
2023/06/09 07:21:37;;;;;;;14.38;5.57;;;18.30;99.90;;;;;;6191743;23;20017;-74
2023/06/09 07:24:06;;;;;;;10.75;5.10;;;18.40;99.90;;;;;;6188013;23;20020;-72
2023/06/09 07:26:32;;;;;;;12.13;5.35;;;18.40;99.90;;;;;;6189226;23;20032;-73
2023/06/09 07:28:58;;;;;;;12.02;5.68;;;18.50;99.90;;;;;;6188571;23;20017;-74
2023/06/09 07:31:24;;;;;;;14.05;5.03;;;18.60;99.90;;;;;;6188092;23;20037;-73
2023/06/09 07:33:50;;;;;;;13.15;5.53;;;18.70;99.90;;;;;;6189492;23;20016;-73
2023/06/09 07:36:16;;;;;;;10.85;5.25;;;18.80;99.90;;;;;;6187416;23;20025;-73
2023/06/09 07:38:46;;;;;;;12.85;5.80;;;18.90;99.90;;;;;;6189391;23;20077;-73
2023/06/09 07:41:12;;;;;;;9.10;5.25;;;19.10;99.90;;;;;;6187894;23;20402;-74
2023/06/09 07:43:38;;;;;;;10.90;4.88;;;19.10;99.90;;;;;;6188888;23;20057;-73
2023/06/09 07:46:04;;;;;;;12.10;6.15;;;19.30;99.90;;;;;;6188548;23;20021;-74
2023/06/09 07:48:30;;;;;;;14.68;5.45;;;19.40;99.90;;;;;;6187894;23;20021;-73
2023/06/09 07:50:56;;;;;;;12.23;6.03;;;19.40;99.90;;;;;;6189402;23;20132;-72
2023/06/09 07:53:22;;;;;;;11.23;5.63;;;19.50;99.90;;;;;;6187322;23;20490;-73
2023/06/09 07:55:48;;;;;;;7.75;4.00;;;19.60;99.90;;;;;;6188790;23;20021;-73
2023/06/09 07:58:14;;;;;;;9.60;4.68;;;19.70;99.90;;;;;;6187052;23;20025;-73
2023/06/09 08:00:41;;;;;;;14.90;6.78;;;19.80;99.90;;;;;;6189080;23;20086;-73
2023/06/09 08:03:06;;;;;;;15.15;5.75;;;19.90;99.90;;;;;;6187827;23;20020;-74
2023/06/09 08:05:32;;;;;;;12.82;5.35;;;20.10;99.90;;;;;;6161532;23;20109;-73
2023/06/09 08:08:00;;;;;;;10.75;4.90;;;20.20;99.90;;;;;;6189226;23;20085;-73
2023/06/09 08:10:26;;;;;;;10.30;4.75;;;20.40;99.90;;;;;;6187616;23;20131;-73
2023/06/09 08:12:52;;;;;;;8.75;5.00;;;20.40;99.90;;;;;;6188770;23;20021;-73
2023/06/09 08:15:18;;;;;;;11.60;4.40;;;20.40;99.90;;;;;;6186979;23;20102;-74
2023/06/09 08:17:44;;;;;;;7.78;4.55;;;20.40;99.90;;;;;;6188962;23;20142;-74
2023/06/09 08:20:10;;;;;;;8.52;4.30;;;20.50;99.90;;;;;;6187919;23;20029;-74
2023/06/09 08:22:38;;;;;;;13.30;5.38;;;20.50;99.90;;;;;;6188813;23;20063;-74
2023/06/09 08:25:04;;;;;;;13.65;6.25;;;20.60;99.90;;;;;;6189429;23;20052;-74
2023/06/09 08:27:30;;;;;;;8.52;4.53;;;20.60;99.90;;;;;;6187291;23;20035;-74
2023/06/09 08:29:56;;;;;;;7.95;4.60;;;20.70;99.90;;;;;;6190098;23;20025;-74
2023/06/09 08:32:21;;;;;;;12.30;4.88;;;20.90;99.90;;;;;;6187457;23;20028;-75
2023/06/09 08:34:47;;;;;;;11.48;4.72;;;21.10;99.90;;;;;;6189088;23;20073;-75
2023/06/09 08:37:15;;;;;;;10.20;5.28;;;21.20;99.90;;;;;;6187796;23;20021;-74
2023/06/09 08:39:40;;;;;;;8.93;4.85;;;21.20;99.90;;;;;;6188293;23;20017;-74
2023/06/09 08:42:13;;;;;;;9.02;4.78;;;21.30;99.90;;;;;;6188377;23;20023;-73
2023/06/09 08:44:40;;;;;;;;;;;21.50;99.90;;;;;;6187903;23;20021;-74
2023/06/09 08:47:08;;;;;;;10.57;5.03;;;21.50;99.90;;;;;;6189115;23;19960;-74
2023/06/09 08:49:35;;;;;;;9.73;4.60;;;21.60;99.90;;;;;;6186944;23;20467;-74
2023/06/09 08:52:04;;;;;;;7.85;4.35;;;21.70;99.90;;;;;;6189370;23;20576;-73
2023/06/09 08:54:30;;;;;;;11.90;4.70;;;21.80;99.90;;;;;;6187853;23;20024;-75
2023/06/09 08:56:57;;;;;;;10.63;4.53;;;21.80;99.90;;;;;;6191436;23;20161;-74
2023/06/09 08:59:23;;;;;;;10.70;4.80;;;21.90;99.90;;;;;;6200144;23;20021;-74
2023/06/09 09:01:50;;;;;;;11.27;5.20;;;22.00;99.90;;;;;;6191875;23;20028;-74
2023/06/09 09:04:17;;;;;;;10.60;4.63;;;22.10;99.90;;;;;;6189946;23;20024;-73
2023/06/09 09:06:43;;;;;;;9.45;4.70;;;22.20;99.90;;;;;;6186464;23;20242;-72
2023/06/09 09:09:09;;;;;;;13.32;5.80;;;22.30;99.90;;;;;;6188395;23;20429;-74
2023/06/09 09:11:35;;;;;;;11.63;4.53;;;22.30;99.90;;;;;;6187534;23;20021;-73
2023/06/09 09:14:11;;;;;;;10.32;4.53;;;22.40;99.90;;;;;;6188323;23;20071;-74
2023/06/09 09:16:37;;;;;;;11.55;4.35;;;22.50;99.90;;;;;;6188911;23;20031;-72
2023/06/09 09:19:03;;;;;;;9.52;4.50;;;22.80;99.90;;;;;;6186508;23;20017;-74
2023/06/09 09:21:29;;;;;;;12.77;5.03;;;22.80;99.90;;;;;;6188348;23;20053;-73
2023/06/09 09:23:58;;;;;;;11.00;4.38;;;22.80;99.90;;;;;;6186108;23;20465;-68
2023/06/09 09:26:28;;;;;;;11.57;4.97;;;22.90;99.90;;;;;;6188261;23;20069;-68
2023/06/09 09:28:56;;;;;;;9.43;4.00;;;23.00;99.90;;;;;;6186762;23;20032;-71
2023/06/09 09:31:29;;;;;;;7.53;4.88;;;23.10;99.90;;;;;;6187265;23;20387;-71
2023/06/09 09:33:55;;;;;;;7.85;3.90;;;23.20;99.90;;;;;;6188508;23;20048;-70
2023/06/09 09:36:23;;;;;;;8.77;4.93;;;23.30;99.90;;;;;;6186328;23;20028;-71
2023/06/09 09:38:49;;;;;;;13.02;4.97;;;23.30;99.90;;;;;;6161198;23;20021;-71
2023/06/09 09:41:15;;;;;;;9.68;5.18;;;23.40;99.90;;;;;;6186636;23;20048;-72
2023/06/09 09:43:41;;;;;;;11.80;4.47;;;23.50;99.90;;;;;;6187724;23;20025;-71
2023/06/09 09:46:07;;;;;;;9.25;4.72;;;23.60;99.90;;;;;;6187411;23;20048;-70
2023/06/09 09:48:37;;;;;;;11.07;4.65;;;23.60;99.90;;;;;;6186425;23;20043;-72
2023/06/09 09:51:04;;;;;;;7.40;4.40;;;23.70;99.90;;;;;;6188863;23;20065;-74
2023/06/09 09:53:30;;;;;;;6.70;4.60;;;23.80;99.90;;;;;;6186088;23;20072;-74
2023/06/09 09:55:59;;;;;;;8.05;4.68;;;23.80;99.90;;;;;;6188787;23;20021;-72
2023/06/09 09:58:30;;;;;;;9.07;4.50;;;23.90;99.90;;;;;;6186886;23;20048;-73
2023/06/09 10:01:03;;;;;;;7.88;4.50;;;23.90;99.90;;;;;;6188178;23;20024;-73
2023/06/09 10:03:29;;;;;;;8.57;4.32;;;24.00;99.90;;;;;;6188079;23;20032;-73
2023/06/09 10:05:59;;;;;;;7.85;4.47;;;24.20;99.90;;;;;;6160114;23;20366;-72
2023/06/09 10:08:28;;;;;;;7.93;4.18;;;24.20;99.90;;;;;;6188726;23;20028;-73
2023/06/09 10:11:00;;;;;;;4.95;3.60;;;24.30;99.90;;;;;;6186455;23;20021;-73
2023/06/09 10:13:27;;;;;;;;;;;24.40;99.90;;;;;;6189510;23;20021;-72
2023/06/09 10:15:54;;;;;;;12.13;4.25;;;24.50;99.90;;;;;;6187495;23;19950;-72
2023/06/09 10:18:21;;;;;;;5.40;4.00;;;24.60;99.90;;;;;;6187919;23;20017;-73
2023/06/09 10:20:48;;;;;;;5.18;3.72;;;24.60;99.90;;;;;;6188742;23;20032;-73
2023/06/09 10:23:15;;;;;;;6.70;4.22;;;24.70;99.90;;;;;;6186079;23;20021;-72
2023/06/09 10:25:48;;;;;;;7.65;4.20;;;24.80;99.90;;;;;;6187102;23;20056;-73
2023/06/09 10:28:16;;;;;;;6.53;4.30;;;24.80;99.90;;;;;;6187035;23;20021;-73
2023/06/09 10:30:43;;;;;;;10.70;4.47;;;24.80;99.90;;;;;;6188497;23;20077;-73
2023/06/09 10:33:16;;;;;;;5.68;3.92;;;24.90;99.90;;;;;;6187556;23;20883;-73
2023/06/09 10:35:46;;;;;;;8.02;4.32;;;24.90;99.90;;;;;;6187293;23;20024;-72
2023/06/09 10:38:29;;;;;;;4.90;3.58;;;25.20;99.90;;;;;;6189026;23;20021;-73
2023/06/09 10:41:08;;;;;;;6.70;3.75;;;25.20;99.90;;;;;;6187190;23;20028;-73
2023/06/09 10:43:53;;;;;;;5.22;3.85;;;25.30;99.90;;;;;;6188556;23;20021;-72
2023/06/09 10:46:38;;;;;;;6.88;3.78;;;25.50;99.90;;;;;;6188526;23;20072;-72
2023/06/09 10:49:04;;;;;;;5.90;3.45;;;25.50;99.90;;;;;;6186545;23;20013;-74
2023/06/09 10:51:29;;;;;;;6.32;3.90;;;25.60;99.90;;;;;;6162259;23;20045;-73
2023/06/09 10:54:10;;;;;;;10.02;4.55;;;25.60;99.90;;;;;;6186769;23;20025;-72
2023/06/09 10:56:46;;;;;;;5.80;3.67;;;25.70;99.90;;;;;;6188191;23;20101;-72
2023/06/09 10:59:27;;;;;;;4.43;3.83;;;25.70;99.90;;;;;;6189784;23;20072;-74
2023/06/09 11:02:05;;;;;;;4.68;3.70;;;25.80;99.90;;;;;;6188388;23;20020;-74
2023/06/09 11:04:45;;;;;;;6.22;4.05;;;25.80;99.90;;;;;;6189480;23;20075;-73
2023/06/09 11:07:21;;;;;;;6.50;3.95;;;25.90;99.90;;;;;;6188754;23;20055;-74
2023/06/09 11:09:47;;;;;;;10.75;3.80;;;26.10;99.90;;;;;;6189801;23;20083;-74
2023/06/09 11:12:24;;;;;;;6.05;3.72;;;26.10;99.90;;;;;;6190787;23;20024;-73
2023/06/09 11:14:51;;;;;;;9.90;4.10;;;26.10;99.90;;;;;;6188305;23;20021;-73
2023/06/09 11:17:37;;;;;;;7.10;4.38;;;26.20;99.70;;;;;;6190471;23;20052;-73
2023/06/09 11:20:06;;;;;;;7.13;3.45;;;26.10;99.50;;;;;;6188793;23;20051;-73
2023/06/09 11:22:41;;;;;;;5.72;3.63;;;26.20;99.40;;;;;;6189370;23;20362;-73
2023/06/09 11:25:19;;;;;;;4.68;3.80;;;26.20;98.90;;;;;;6189998;23;20025;-73
2023/06/09 11:27:55;;;;;;;5.93;3.55;;;26.50;99.40;;;;;;6187712;23;20099;-74
2023/06/09 11:30:23;;;;;;;7.05;3.72;;;26.50;98.40;;;;;;6162977;23;20041;-74
2023/06/09 11:32:50;;;;;;;11.40;3.45;;;26.50;99.30;;;;;;6188699;23;20507;-74
2023/06/09 11:35:25;;;;;;;7.38;3.83;;;26.60;98.70;;;;;;6189445;23;20029;-74
2023/06/09 11:37:52;;;;;;;4.95;3.65;;;26.60;98.30;;;;;;6189919;23;20082;-73
2023/06/09 11:40:22;;;;;;;5.93;3.78;;;26.70;98.40;;;;;;6188527;23;20020;-72
2023/06/09 11:42:48;;;;;;;6.80;3.80;;;26.80;99.50;;;;;;6192170;23;20072;-73
2023/06/09 11:45:18;;;;;;;8.20;4.13;;;26.70;98.10;;;;;;6189131;23;20056;-73
2023/06/09 11:47:45;;;;;;;6.07;3.67;;;26.70;98.80;;;;;;6191272;23;20021;-73
2023/06/09 11:50:16;;;;;;;6.22;3.75;;;26.70;97.70;;;;;;6201888;23;20017;-72
2023/06/09 11:52:45;;;;;;;7.45;3.60;;;26.90;97.90;;;;;;6197212;23;20422;-71
2023/06/09 11:55:17;;;;;;;4.55;3.58;;;26.80;98.60;;;;;;6189968;23;20058;-72
2023/06/09 11:57:43;;;;;;;5.00;3.78;;;27.10;98.40;;;;;;6187791;23;20025;-73
2023/06/09 12:00:13;;;;;;;5.93;4.10;;;27.00;98.40;;;;;;6189850;23;20020;-72
2023/06/09 12:02:40;;;;;;;5.07;4.22;;;27.10;97.60;;;;;;6188134;23;20027;-72
2023/06/09 12:05:10;;;;;;;7.50;4.35;;;27.00;97.90;;;;;;6162605;23;20024;-71
2023/06/09 12:07:36;;;;;;;6.63;4.55;;;26.90;97.70;;;;;;6189257;23;20052;-70
2023/06/09 12:10:03;;;;;;;5.40;3.75;;;27.00;97.70;;;;;;6187852;23;20028;-71
2023/06/09 12:12:31;;;;;;;10.07;4.20;;;27.00;97.70;;;;;;6189963;23;20021;-73
2023/06/09 12:14:57;;;;;;;6.20;4.20;;;27.00;97.40;;;;;;6187534;23;20027;-72
2023/06/09 12:17:23;;;;;;;5.28;3.92;;;27.00;96.80;;;;;;6188901;23;20024;-72
2023/06/09 12:19:51;;;;;;;6.03;4.05;;;27.20;98.00;;;;;;6187781;23;20024;-72
2023/06/09 12:22:16;;;;;;;8.45;4.00;;;27.20;97.90;;;;;;6189047;23;20032;-70
2023/06/09 12:24:44;;;;;;;6.82;4.72;;;27.20;97.40;;;;;;6187924;23;20021;-71
2023/06/09 12:27:13;;;;;;;6.40;4.15;;;27.30;97.10;;;;;;6187517;23;20017;-71
2023/06/09 12:29:40;;;;;;;6.50;3.83;;;27.20;96.60;;;;;;6189404;23;20024;-71
2023/06/09 12:32:08;;;;;;;6.85;4.45;;;27.40;97.30;;;;;;6186159;23;20552;-70
2023/06/09 12:34:34;;;;;;;9.52;4.28;;;27.40;97.40;;;;;;6189165;23;20095;-71
2023/06/09 12:37:04;;;;;;;6.32;4.00;;;27.40;97.40;;;;;;6187840;23;20021;-71
2023/06/09 12:39:34;;;;;;;5.43;4.18;;;27.40;97.20;;;;;;6189040;23;20125;-72
2023/06/09 12:42:10;;;;;;;9.43;3.95;;;27.50;97.60;;;;;;6162494;23;20013;-76
2023/06/09 12:44:35;;;;;;;8.98;4.40;;;27.60;96.50;;;;;;6187205;23;20017;-78